Ponca City Regional Airport
KPNC : now visible

Airfield :











YOU CAN JOIN US ON...

 
LOGIN :

Register | Disclaimer

   EN    FR    IT 

 









Legend :    VFR   Marginal VFR   IFR   Intensive IFR   Very Intensive IFR
Visi :
Ceiling :
>= 8 km
>= 3000ft
5 to 8 km
1000 to 3000 ft
1500m to 5 km
500 to 1000 ft
800 to 1500m
200 to 500 ft
< 800m
< 200 ft
Symbols :   Thunderstorms  Fog  Heavy snow  Heavy precipitations  Wind > 20 kt






- Airport Elevation : 1008 ft


KPNC - Ponca City Regional

CURRENT METAR :
  • 211553Z AUTO 22015G27KT 10SM FEW032 29/21 A2960 RMK AO2 PK WND 22031/1512 SLP010 T02890211

EXPIRED METARs :
  • 211453Z AUTO 20013G26KT 10SM CLR 28/22 A2961 RMK AO2 PK WND 20031/1437 SLP012 T02780217 50005
  • 211353Z AUTO 20007G24KT 10SM SCT025 SCT032 26/21 A2962 RMK AO2 SLP014 T02610211
  • 211253Z AUTO 18013G22KT 10SM CLR 24/20 A2961 RMK AO2 SLP011 T02440200
  • 211153Z AUTO 18012G24KT 10SM CLR 24/20 A2959 RMK AO2 PK WND 17030/1059 SLP007 T02390200 10244 20233 55001

TAF KPNC
Valid from the 21 at 12:00 until the 22 at 12:00 UTC


211138Z 2112/2212 18014G24KT P6SM SCT020 WS020/20050KT
TEMPO 2113/2115 BKN020
FM211500 20014G22KT P6SM SCT250
FM211800 25012G20KT P6SM SCT250
FM212100 02013KT P6SM SCT040 SCT250
KZKC FIR / North America



MET'MAP, your aeronautical weather chart ! - Copyright ORBIFLY December 2007 - Disclaimer

ORBIFLY MET'MAP TEAM :

Programming & Development : Alexandra Zaïnal
Original concept : Baudouin d'Aumeries
Technical & hardware support : Manuel Goepfert
Assistance : Marc-Olivier Méhu




SOURCES & CREDITS :

   NOAA       Earth
Advisory